sensor_id;sensor_type;location;lat;lon;timestamp;P1;durP1;ratioP1;P2;durP2;ratioP2
3004;SDS011;1512;51.486;6.610;2023-03-09T00:01:04;20.20;;;12.70;;
3004;SDS011;1512;51.486;6.610;2023-03-09T00:05:13;16.33;;;11.33;;
3004;SDS011;1512;51.486;6.610;2023-03-09T00:09:23;20.47;;;11.60;;
3004;SDS011;1512;51.486;6.610;2023-03-09T00:13:32;27.40;;;13.20;;
3004;SDS011;1512;51.486;6.610;2023-03-09T00:17:42;19.00;;;11.57;;
3004;SDS011;1512;51.486;6.610;2023-03-09T00:21:53;21.97;;;10.50;;
3004;SDS011;1512;51.486;6.610;2023-03-09T00:26:04;16.00;;;10.27;;
3004;SDS011;1512;51.486;6.610;2023-03-09T00:30:13;17.77;;;11.27;;
3004;SDS011;1512;51.486;6.610;2023-03-09T00:34:23;18.53;;;10.40;;
3004;SDS011;1512;51.486;6.610;2023-03-09T00:43:00;20.73;;;12.50;;
3004;SDS011;1512;51.486;6.610;2023-03-09T00:47:09;26.97;;;11.93;;
3004;SDS011;1512;51.486;6.610;2023-03-09T00:51:17;18.60;;;12.50;;
3004;SDS011;1512;51.486;6.610;2023-03-09T00:55:26;19.63;;;11.40;;
3004;SDS011;1512;51.486;6.610;2023-03-09T01:04:03;15.20;;;10.90;;
3004;SDS011;1512;51.486;6.610;2023-03-09T01:08:12;21.20;;;12.53;;
3004;SDS011;1512;51.486;6.610;2023-03-09T01:16:49;17.97;;;11.03;;
3004;SDS011;1512;51.486;6.610;2023-03-09T01:20:58;17.50;;;11.20;;
3004;SDS011;1512;51.486;6.610;2023-03-09T01:25:07;26.20;;;11.33;;
3004;SDS011;1512;51.486;6.610;2023-03-09T01:33:44;17.97;;;10.23;;
3004;SDS011;1512;51.486;6.610;2023-03-09T01:37:55;22.30;;;12.20;;
3004;SDS011;1512;51.486;6.610;2023-03-09T01:42:04;17.60;;;10.60;;
3004;SDS011;1512;51.486;6.610;2023-03-09T01:50:33;14.00;;;9.27;;
3004;SDS011;1512;51.486;6.610;2023-03-09T01:54:54;16.13;;;9.97;;
3004;SDS011;1512;51.486;6.610;2023-03-09T01:59:05;17.00;;;10.03;;
3004;SDS011;1512;51.486;6.610;2023-03-09T02:03:17;21.10;;;11.80;;
3004;SDS011;1512;51.486;6.610;2023-03-09T02:07:29;19.93;;;13.20;;
3004;SDS011;1512;51.486;6.610;2023-03-09T02:11:41;20.67;;;11.97;;
3004;SDS011;1512;51.486;6.610;2023-03-09T02:15:50;18.07;;;12.43;;
3004;SDS011;1512;51.486;6.610;2023-03-09T02:24:36;26.00;;;13.77;;
3004;SDS011;1512;51.486;6.610;2023-03-09T02:28:45;19.80;;;11.80;;
3004;SDS011;1512;51.486;6.610;2023-03-09T02:33:33;19.70;;;12.07;;
3004;SDS011;1512;51.486;6.610;2023-03-09T02:37:40;23.73;;;12.00;;
3004;SDS011;1512;51.486;6.610;2023-03-09T02:41:46;20.10;;;11.53;;
3004;SDS011;1512;51.486;6.610;2023-03-09T02:45:54;18.33;;;12.03;;
3004;SDS011;1512;51.486;6.610;2023-03-09T02:58:59;20.77;;;11.97;;
3004;SDS011;1512;51.486;6.610;2023-03-09T03:03:09;20.13;;;10.77;;
3004;SDS011;1512;51.486;6.610;2023-03-09T03:07:18;19.60;;;9.80;;
3004;SDS011;1512;51.486;6.610;2023-03-09T03:11:26;19.33;;;9.13;;
3004;SDS011;1512;51.486;6.610;2023-03-09T03:15:35;18.10;;;11.63;;
3004;SDS011;1512;51.486;6.610;2023-03-09T03:19:43;22.27;;;13.20;;
3004;SDS011;1512;51.486;6.610;2023-03-09T03:23:52;20.17;;;11.57;;
3004;SDS011;1512;51.486;6.610;2023-03-09T03:28:01;23.17;;;13.23;;
3004;SDS011;1512;51.486;6.610;2023-03-09T03:32:09;15.13;;;10.23;;
3004;SDS011;1512;51.486;6.610;2023-03-09T03:45:14;20.30;;;11.93;;
3004;SDS011;1512;51.486;6.610;2023-03-09T03:49:23;19.67;;;11.30;;
3004;SDS011;1512;51.486;6.610;2023-03-09T03:58:00;27.17;;;12.37;;
3004;SDS011;1512;51.486;6.610;2023-03-09T04:02:09;26.40;;;13.47;;
3004;SDS011;1512;51.486;6.610;2023-03-09T04:06:18;19.07;;;12.60;;
3004;SDS011;1512;51.486;6.610;2023-03-09T04:10:27;27.50;;;14.07;;
3004;SDS011;1512;51.486;6.610;2023-03-09T04:14:35;26.73;;;10.33;;
3004;SDS011;1512;51.486;6.610;2023-03-09T04:18:45;24.80;;;14.90;;
3004;SDS011;1512;51.486;6.610;2023-03-09T04:22:53;21.87;;;13.73;;
3004;SDS011;1512;51.486;6.610;2023-03-09T04:27:02;26.13;;;14.63;;
3004;SDS011;1512;51.486;6.610;2023-03-09T04:31:10;21.07;;;12.70;;
3004;SDS011;1512;51.486;6.610;2023-03-09T04:35:19;23.67;;;13.10;;
3004;SDS011;1512;51.486;6.610;2023-03-09T04:39:28;20.50;;;11.13;;
3004;SDS011;1512;51.486;6.610;2023-03-09T04:43:36;23.80;;;15.53;;
3004;SDS011;1512;51.486;6.610;2023-03-09T04:47:45;30.93;;;14.37;;
3004;SDS011;1512;51.486;6.610;2023-03-09T04:51:53;25.60;;;15.03;;
3004;SDS011;1512;51.486;6.610;2023-03-09T04:56:02;28.83;;;13.90;;
3004;SDS011;1512;51.486;6.610;2023-03-09T05:00:13;22.13;;;13.50;;
3004;SDS011;1512;51.486;6.610;2023-03-09T05:04:22;32.37;;;16.43;;
3004;SDS011;1512;51.486;6.610;2023-03-09T05:08:31;30.20;;;15.00;;
3004;SDS011;1512;51.486;6.610;2023-03-09T05:12:39;22.07;;;14.20;;
3004;SDS011;1512;51.486;6.610;2023-03-09T05:21:16;24.73;;;13.90;;
3004;SDS011;1512;51.486;6.610;2023-03-09T05:25:26;20.60;;;12.57;;
3004;SDS011;1512;51.486;6.610;2023-03-09T05:29:34;26.97;;;16.07;;
3004;SDS011;1512;51.486;6.610;2023-03-09T05:33:43;30.73;;;16.47;;
3004;SDS011;1512;51.486;6.610;2023-03-09T05:37:51;27.63;;;13.47;;
3004;SDS011;1512;51.486;6.610;2023-03-09T05:42:00;22.17;;;14.17;;
3004;SDS011;1512;51.486;6.610;2023-03-09T05:46:10;32.27;;;15.80;;
3004;SDS011;1512;51.486;6.610;2023-03-09T05:50:19;22.23;;;13.80;;
3004;SDS011;1512;51.486;6.610;2023-03-09T05:54:28;38.23;;;14.93;;
3004;SDS011;1512;51.486;6.610;2023-03-09T05:58:37;28.97;;;15.03;;
3004;SDS011;1512;51.486;6.610;2023-03-09T06:02:45;26.97;;;13.70;;
3004;SDS011;1512;51.486;6.610;2023-03-09T06:06:54;26.30;;;14.20;;
3004;SDS011;1512;51.486;6.610;2023-03-09T06:11:03;27.07;;;14.73;;
3004;SDS011;1512;51.486;6.610;2023-03-09T06:15:11;28.73;;;14.83;;
3004;SDS011;1512;51.486;6.610;2023-03-09T06:23:48;23.33;;;15.10;;
3004;SDS011;1512;51.486;6.610;2023-03-09T06:27:58;28.90;;;14.10;;
3004;SDS011;1512;51.486;6.610;2023-03-09T06:32:07;34.50;;;14.50;;
3004;SDS011;1512;51.486;6.610;2023-03-09T06:36:16;35.13;;;15.37;;
3004;SDS011;1512;51.486;6.610;2023-03-09T06:40:25;31.30;;;16.37;;
3004;SDS011;1512;51.486;6.610;2023-03-09T06:44:34;31.77;;;14.87;;
3004;SDS011;1512;51.486;6.610;2023-03-09T06:48:43;24.10;;;13.63;;
3004;SDS011;1512;51.486;6.610;2023-03-09T06:52:51;27.83;;;14.90;;
3004;SDS011;1512;51.486;6.610;2023-03-09T06:57:00;30.83;;;17.13;;
3004;SDS011;1512;51.486;6.610;2023-03-09T07:01:09;34.17;;;16.07;;
3004;SDS011;1512;51.486;6.610;2023-03-09T07:05:20;28.67;;;15.43;;
3004;SDS011;1512;51.486;6.610;2023-03-09T07:09:28;28.50;;;16.57;;
3004;SDS011;1512;51.486;6.610;2023-03-09T07:18:08;31.20;;;17.10;;
3004;SDS011;1512;51.486;6.610;2023-03-09T07:22:17;28.20;;;16.15;;
3004;SDS011;1512;51.486;6.610;2023-03-09T07:26:26;34.57;;;16.60;;
3004;SDS011;1512;51.486;6.610;2023-03-09T07:35:02;27.20;;;15.33;;
3004;SDS011;1512;51.486;6.610;2023-03-09T07:39:12;34.10;;;16.23;;
3004;SDS011;1512;51.486;6.610;2023-03-09T07:43:20;29.97;;;15.40;;
3004;SDS011;1512;51.486;6.610;2023-03-09T07:47:29;34.60;;;15.03;;
3004;SDS011;1512;51.486;6.610;2023-03-09T07:51:38;29.53;;;16.07;;
3004;SDS011;1512;51.486;6.610;2023-03-09T07:55:53;33.30;;;17.03;;
3004;SDS011;1512;51.486;6.610;2023-03-09T08:00:04;37.47;;;16.40;;
3004;SDS011;1512;51.486;6.610;2023-03-09T08:04:15;26.67;;;14.20;;
3004;SDS011;1512;51.486;6.610;2023-03-09T08:08:24;35.73;;;19.90;;
3004;SDS011;1512;51.486;6.610;2023-03-09T08:12:33;34.53;;;16.97;;
3004;SDS011;1512;51.486;6.610;2023-03-09T08:16:42;34.20;;;16.93;;
3004;SDS011;1512;51.486;6.610;2023-03-09T08:20:51;43.50;;;18.60;;
3004;SDS011;1512;51.486;6.610;2023-03-09T08:25:00;32.73;;;15.67;;
3004;SDS011;1512;51.486;6.610;2023-03-09T08:29:09;33.30;;;16.10;;
3004;SDS011;1512;51.486;6.610;2023-03-09T08:33:18;42.60;;;18.90;;
3004;SDS011;1512;51.486;6.610;2023-03-09T08:37:26;28.17;;;17.60;;
3004;SDS011;1512;51.486;6.610;2023-03-09T08:41:37;37.70;;;18.33;;
3004;SDS011;1512;51.486;6.610;2023-03-09T08:45:45;40.48;;;17.65;;
3004;SDS011;1512;51.486;6.610;2023-03-09T08:49:54;37.23;;;16.97;;
3004;SDS011;1512;51.486;6.610;2023-03-09T08:54:03;38.80;;;18.10;;
3004;SDS011;1512;51.486;6.610;2023-03-09T08:58:12;44.10;;;18.07;;
3004;SDS011;1512;51.486;6.610;2023-03-09T09:02:21;43.33;;;16.40;;
3004;SDS011;1512;51.486;6.610;2023-03-09T09:06:30;36.50;;;17.27;;
3004;SDS011;1512;51.486;6.610;2023-03-09T09:10:39;30.00;;;15.80;;
3004;SDS011;1512;51.486;6.610;2023-03-09T09:14:49;37.67;;;19.07;;
3004;SDS011;1512;51.486;6.610;2023-03-09T09:18:58;40.10;;;18.23;;
3004;SDS011;1512;51.486;6.610;2023-03-09T09:23:07;33.83;;;17.50;;
3004;SDS011;1512;51.486;6.610;2023-03-09T09:27:15;50.13;;;20.40;;
3004;SDS011;1512;51.486;6.610;2023-03-09T09:31:24;54.50;;;15.90;;
3004;SDS011;1512;51.486;6.610;2023-03-09T09:35:32;45.40;;;18.77;;
3004;SDS011;1512;51.486;6.610;2023-03-09T09:39:43;40.20;;;16.53;;
3004;SDS011;1512;51.486;6.610;2023-03-09T09:48:24;36.60;;;18.57;;
3004;SDS011;1512;51.486;6.610;2023-03-09T09:57:01;37.00;;;17.47;;
3004;SDS011;1512;51.486;6.610;2023-03-09T10:05:53;39.13;;;19.77;;
3004;SDS011;1512;51.486;6.610;2023-03-09T10:10:17;53.00;;;21.60;;
3004;SDS011;1512;51.486;6.610;2023-03-09T10:14:34;48.10;;;21.10;;
3004;SDS011;1512;51.486;6.610;2023-03-09T10:23:24;44.27;;;18.80;;
3004;SDS011;1512;51.486;6.610;2023-03-09T10:27:40;43.93;;;20.73;;
3004;SDS011;1512;51.486;6.610;2023-03-09T10:31:55;32.27;;;17.27;;
3004;SDS011;1512;51.486;6.610;2023-03-09T10:36:08;38.70;;;20.10;;
3004;SDS011;1512;51.486;6.610;2023-03-09T10:40:29;42.60;;;19.40;;
3004;SDS011;1512;51.486;6.610;2023-03-09T10:44:43;39.70;;;18.40;;
3004;SDS011;1512;51.486;6.610;2023-03-09T10:49:10;44.10;;;19.63;;
3004;SDS011;1512;51.486;6.610;2023-03-09T10:53:26;29.90;;;15.93;;
3004;SDS011;1512;51.486;6.610;2023-03-09T10:57:40;44.80;;;20.33;;
3004;SDS011;1512;51.486;6.610;2023-03-09T11:01:54;36.97;;;16.67;;
3004;SDS011;1512;51.486;6.610;2023-03-09T11:10:39;27.63;;;16.53;;
3004;SDS011;1512;51.486;6.610;2023-03-09T11:15:00;38.63;;;18.43;;
3004;SDS011;1512;51.486;6.610;2023-03-09T11:19:12;27.70;;;15.20;;
3004;SDS011;1512;51.486;6.610;2023-03-09T11:27:39;42.33;;;18.30;;
3004;SDS011;1512;51.486;6.610;2023-03-09T11:31:51;33.40;;;16.23;;
3004;SDS011;1512;51.486;6.610;2023-03-09T11:35:59;37.23;;;18.87;;
3004;SDS011;1512;51.486;6.610;2023-03-09T11:40:11;33.67;;;16.97;;
3004;SDS011;1512;51.486;6.610;2023-03-09T11:44:41;28.90;;;14.73;;
3004;SDS011;1512;51.486;6.610;2023-03-09T11:49:00;33.97;;;16.57;;
3004;SDS011;1512;51.486;6.610;2023-03-09T11:53:23;35.70;;;18.00;;
3004;SDS011;1512;51.486;6.610;2023-03-09T11:57:31;29.30;;;16.77;;
3004;SDS011;1512;51.486;6.610;2023-03-09T12:01:47;26.20;;;17.20;;
3004;SDS011;1512;51.486;6.610;2023-03-09T12:05:58;31.37;;;15.60;;
3004;SDS011;1512;51.486;6.610;2023-03-09T12:14:31;35.07;;;16.87;;
3004;SDS011;1512;51.486;6.610;2023-03-09T12:18:44;37.20;;;20.73;;
3004;SDS011;1512;51.486;6.610;2023-03-09T12:22:54;35.20;;;18.87;;
3004;SDS011;1512;51.486;6.610;2023-03-09T12:31:30;30.57;;;16.93;;
3004;SDS011;1512;51.486;6.610;2023-03-09T12:45:00;34.80;;;15.63;;
3004;SDS011;1512;51.486;6.610;2023-03-09T12:48:52;28.23;;;16.20;;
3004;SDS011;1512;51.486;6.610;2023-03-09T12:57:35;23.03;;;13.13;;
3004;SDS011;1512;51.486;6.610;2023-03-09T13:01:44;30.37;;;15.30;;
3004;SDS011;1512;51.486;6.610;2023-03-09T13:10:36;25.20;;;14.03;;
3004;SDS011;1512;51.486;6.610;2023-03-09T13:19:28;30.97;;;13.07;;
3004;SDS011;1512;51.486;6.610;2023-03-09T13:23:25;26.40;;;14.70;;
3004;SDS011;1512;51.486;6.610;2023-03-09T13:32:03;29.63;;;15.23;;
3004;SDS011;1512;51.486;6.610;2023-03-09T13:36:19;29.77;;;15.00;;
3004;SDS011;1512;51.486;6.610;2023-03-09T13:40:31;29.97;;;14.53;;
3004;SDS011;1512;51.486;6.610;2023-03-09T13:44:45;25.87;;;14.27;;
3004;SDS011;1512;51.486;6.610;2023-03-09T13:48:54;29.63;;;16.07;;
3004;SDS011;1512;51.486;6.610;2023-03-09T13:53:23;31.70;;;14.43;;
3004;SDS011;1512;51.486;6.610;2023-03-09T13:57:34;38.13;;;16.57;;
3004;SDS011;1512;51.486;6.610;2023-03-09T14:01:46;26.90;;;16.00;;
3004;SDS011;1512;51.486;6.610;2023-03-09T14:05:56;29.07;;;17.07;;
3004;SDS011;1512;51.486;6.610;2023-03-09T14:10:31;23.67;;;11.63;;
3004;SDS011;1512;51.486;6.610;2023-03-09T14:14:26;22.20;;;12.73;;
3004;SDS011;1512;51.486;6.610;2023-03-09T14:18:57;27.43;;;13.20;;
3004;SDS011;1512;51.486;6.610;2023-03-09T14:27:28;36.87;;;15.57;;
3004;SDS011;1512;51.486;6.610;2023-03-09T14:31:39;28.30;;;15.07;;
3004;SDS011;1512;51.486;6.610;2023-03-09T14:35:48;34.23;;;15.60;;
3004;SDS011;1512;51.486;6.610;2023-03-09T14:39:58;33.77;;;16.40;;
3004;SDS011;1512;51.486;6.610;2023-03-09T14:44:25;26.70;;;14.07;;
3004;SDS011;1512;51.486;6.610;2023-03-09T14:48:19;26.60;;;14.07;;
3004;SDS011;1512;51.486;6.610;2023-03-09T14:52:28;25.70;;;12.00;;
3004;SDS011;1512;51.486;6.610;2023-03-09T14:56:37;27.80;;;12.17;;
3004;SDS011;1512;51.486;6.610;2023-03-09T15:00:46;25.47;;;12.13;;
3004;SDS011;1512;51.486;6.610;2023-03-09T15:04:55;24.30;;;12.20;;
3004;SDS011;1512;51.486;6.610;2023-03-09T15:09:04;18.77;;;11.03;;
3004;SDS011;1512;51.486;6.610;2023-03-09T15:13:13;16.67;;;10.33;;
3004;SDS011;1512;51.486;6.610;2023-03-09T15:17:22;18.70;;;8.83;;
3004;SDS011;1512;51.486;6.610;2023-03-09T15:21:30;19.23;;;12.15;;
3004;SDS011;1512;51.486;6.610;2023-03-09T15:25:39;12.60;;;8.77;;
3004;SDS011;1512;51.486;6.610;2023-03-09T15:29:50;22.23;;;11.67;;
3004;SDS011;1512;51.486;6.610;2023-03-09T15:33:59;22.97;;;11.83;;
3004;SDS011;1512;51.486;6.610;2023-03-09T15:38:08;18.40;;;12.40;;
3004;SDS011;1512;51.486;6.610;2023-03-09T15:42:16;16.10;;;10.90;;
3004;SDS011;1512;51.486;6.610;2023-03-09T15:46:26;19.47;;;11.70;;
3004;SDS011;1512;51.486;6.610;2023-03-09T15:50:35;18.57;;;12.20;;
3004;SDS011;1512;51.486;6.610;2023-03-09T15:54:47;25.43;;;13.47;;
3004;SDS011;1512;51.486;6.610;2023-03-09T16:03:25;20.50;;;14.00;;
3004;SDS011;1512;51.486;6.610;2023-03-09T16:07:35;24.60;;;13.23;;
3004;SDS011;1512;51.486;6.610;2023-03-09T16:11:44;26.57;;;13.87;;
3004;SDS011;1512;51.486;6.610;2023-03-09T16:15:54;29.67;;;16.33;;
3004;SDS011;1512;51.486;6.610;2023-03-09T16:20:03;31.23;;;15.80;;
3004;SDS011;1512;51.486;6.610;2023-03-09T16:24:13;31.80;;;15.37;;
3004;SDS011;1512;51.486;6.610;2023-03-09T16:28:23;22.30;;;13.40;;
3004;SDS011;1512;51.486;6.610;2023-03-09T16:32:33;22.97;;;13.03;;
3004;SDS011;1512;51.486;6.610;2023-03-09T16:36:42;29.80;;;15.13;;
3004;SDS011;1512;51.486;6.610;2023-03-09T16:40:50;30.07;;;14.80;;
3004;SDS011;1512;51.486;6.610;2023-03-09T16:44:59;29.57;;;13.50;;
3004;SDS011;1512;51.486;6.610;2023-03-09T16:49:08;31.03;;;16.20;;
3004;SDS011;1512;51.486;6.610;2023-03-09T16:53:17;23.93;;;12.90;;
3004;SDS011;1512;51.486;6.610;2023-03-09T16:57:26;21.60;;;13.10;;
3004;SDS011;1512;51.486;6.610;2023-03-09T17:01:35;31.37;;;13.60;;
3004;SDS011;1512;51.486;6.610;2023-03-09T17:05:44;22.53;;;11.60;;
3004;SDS011;1512;51.486;6.610;2023-03-09T17:09:54;21.43;;;12.53;;
3004;SDS011;1512;51.486;6.610;2023-03-09T17:14:03;21.30;;;13.30;;
3004;SDS011;1512;51.486;6.610;2023-03-09T17:18:11;25.50;;;13.73;;
3004;SDS011;1512;51.486;6.610;2023-03-09T17:22:20;18.13;;;12.60;;
3004;SDS011;1512;51.486;6.610;2023-03-09T17:26:29;26.13;;;13.83;;
3004;SDS011;1512;51.486;6.610;2023-03-09T17:30:38;20.90;;;12.57;;
3004;SDS011;1512;51.486;6.610;2023-03-09T17:39:17;23.80;;;12.20;;
3004;SDS011;1512;51.486;6.610;2023-03-09T17:43:26;28.53;;;14.63;;
3004;SDS011;1512;51.486;6.610;2023-03-09T17:47:35;26.57;;;12.57;;
3004;SDS011;1512;51.486;6.610;2023-03-09T17:51:43;28.50;;;12.90;;
3004;SDS011;1512;51.486;6.610;2023-03-09T17:55:52;19.60;;;12.57;;
3004;SDS011;1512;51.486;6.610;2023-03-09T18:00:01;21.67;;;13.53;;
3004;SDS011;1512;51.486;6.610;2023-03-09T18:04:10;27.53;;;13.80;;
3004;SDS011;1512;51.486;6.610;2023-03-09T18:17:16;26.33;;;16.10;;
3004;SDS011;1512;51.486;6.610;2023-03-09T18:21:24;31.23;;;15.30;;
3004;SDS011;1512;51.486;6.610;2023-03-09T18:25:33;28.50;;;15.50;;
3004;SDS011;1512;51.486;6.610;2023-03-09T18:29:43;22.17;;;14.13;;
3004;SDS011;1512;51.486;6.610;2023-03-09T18:33:52;29.63;;;15.27;;
3004;SDS011;1512;51.486;6.610;2023-03-09T18:38:01;20.77;;;13.97;;
3004;SDS011;1512;51.486;6.610;2023-03-09T18:42:09;20.80;;;14.77;;
3004;SDS011;1512;51.486;6.610;2023-03-09T18:46:18;22.13;;;14.10;;
3004;SDS011;1512;51.486;6.610;2023-03-09T18:50:27;24.27;;;16.13;;
3004;SDS011;1512;51.486;6.610;2023-03-09T18:54:35;29.10;;;15.50;;
3004;SDS011;1512;51.486;6.610;2023-03-09T18:58:44;31.50;;;14.50;;
3004;SDS011;1512;51.486;6.610;2023-03-09T19:02:53;20.50;;;14.03;;
3004;SDS011;1512;51.486;6.610;2023-03-09T19:07:02;23.13;;;12.70;;
3004;SDS011;1512;51.486;6.610;2023-03-09T19:11:12;24.63;;;12.67;;
3004;SDS011;1512;51.486;6.610;2023-03-09T19:15:23;27.10;;;14.10;;
3004;SDS011;1512;51.486;6.610;2023-03-09T19:19:31;16.70;;;11.50;;
3004;SDS011;1512;51.486;6.610;2023-03-09T19:23:47;23.90;;;13.70;;
3004;SDS011;1512;51.486;6.610;2023-03-09T19:27:59;23.77;;;15.70;;
3004;SDS011;1512;51.486;6.610;2023-03-09T19:32:08;24.70;;;13.40;;
3004;SDS011;1512;51.486;6.610;2023-03-09T19:40:53;23.23;;;12.27;;
3004;SDS011;1512;51.486;6.610;2023-03-09T19:45:02;24.87;;;15.20;;
3004;SDS011;1512;51.486;6.610;2023-03-09T19:49:11;28.30;;;14.57;;
3004;SDS011;1512;51.486;6.610;2023-03-09T19:53:20;19.33;;;12.10;;
3004;SDS011;1512;51.486;6.610;2023-03-09T19:57:29;19.03;;;10.47;;
3004;SDS011;1512;51.486;6.610;2023-03-09T20:01:38;16.82;;;10.50;;
3004;SDS011;1512;51.486;6.610;2023-03-09T20:05:49;19.53;;;9.37;;
3004;SDS011;1512;51.486;6.610;2023-03-09T20:09:59;17.70;;;9.43;;
3004;SDS011;1512;51.486;6.610;2023-03-09T20:14:09;16.00;;;8.50;;
3004;SDS011;1512;51.486;6.610;2023-03-09T20:18:19;17.63;;;7.13;;
3004;SDS011;1512;51.486;6.610;2023-03-09T20:22:27;8.27;;;6.30;;
3004;SDS011;1512;51.486;6.610;2023-03-09T20:26:38;16.20;;;7.00;;
3004;SDS011;1512;51.486;6.610;2023-03-09T20:30:48;9.50;;;5.93;;
3004;SDS011;1512;51.486;6.610;2023-03-09T20:34:57;8.43;;;5.67;;
3004;SDS011;1512;51.486;6.610;2023-03-09T20:39:06;10.03;;;6.00;;
3004;SDS011;1512;51.486;6.610;2023-03-09T20:43:16;8.97;;;5.40;;
3004;SDS011;1512;51.486;6.610;2023-03-09T20:47:25;9.00;;;5.83;;
3004;SDS011;1512;51.486;6.610;2023-03-09T20:51:34;7.43;;;4.67;;
3004;SDS011;1512;51.486;6.610;2023-03-09T20:55:42;13.33;;;5.13;;
3004;SDS011;1512;51.486;6.610;2023-03-09T20:59:55;10.60;;;4.97;;
3004;SDS011;1512;51.486;6.610;2023-03-09T21:04:04;9.23;;;5.03;;
3004;SDS011;1512;51.486;6.610;2023-03-09T21:08:13;11.43;;;4.37;;
3004;SDS011;1512;51.486;6.610;2023-03-09T21:12:21;8.50;;;4.57;;
3004;SDS011;1512;51.486;6.610;2023-03-09T21:16:30;8.93;;;5.10;;
3004;SDS011;1512;51.486;6.610;2023-03-09T21:20:40;15.27;;;4.47;;
3004;SDS011;1512;51.486;6.610;2023-03-09T21:24:49;16.83;;;7.00;;
3004;SDS011;1512;51.486;6.610;2023-03-09T21:28:59;11.43;;;5.93;;
3004;SDS011;1512;51.486;6.610;2023-03-09T21:33:07;11.73;;;5.10;;
3004;SDS011;1512;51.486;6.610;2023-03-09T21:37:16;11.50;;;5.10;;
3004;SDS011;1512;51.486;6.610;2023-03-09T21:41:25;14.90;;;4.53;;
3004;SDS011;1512;51.486;6.610;2023-03-09T21:50:02;6.30;;;4.50;;
3004;SDS011;1512;51.486;6.610;2023-03-09T21:54:11;5.23;;;4.40;;
3004;SDS011;1512;51.486;6.610;2023-03-09T21:58:20;7.83;;;3.90;;
3004;SDS011;1512;51.486;6.610;2023-03-09T22:02:28;7.47;;;4.27;;
3004;SDS011;1512;51.486;6.610;2023-03-09T22:06:37;9.33;;;4.60;;
3004;SDS011;1512;51.486;6.610;2023-03-09T22:10:46;8.13;;;5.10;;
3004;SDS011;1512;51.486;6.610;2023-03-09T22:14:54;9.10;;;5.87;;
3004;SDS011;1512;51.486;6.610;2023-03-09T22:19:04;12.10;;;4.63;;
3004;SDS011;1512;51.486;6.610;2023-03-09T22:23:14;12.40;;;4.70;;
3004;SDS011;1512;51.486;6.610;2023-03-09T22:27:23;6.00;;;3.70;;
3004;SDS011;1512;51.486;6.610;2023-03-09T22:31:32;8.53;;;4.13;;
3004;SDS011;1512;51.486;6.610;2023-03-09T22:35:41;8.90;;;4.03;;
3004;SDS011;1512;51.486;6.610;2023-03-09T22:39:50;9.20;;;4.33;;
3004;SDS011;1512;51.486;6.610;2023-03-09T22:43:59;7.03;;;5.20;;
3004;SDS011;1512;51.486;6.610;2023-03-09T22:48:09;9.23;;;5.10;;
3004;SDS011;1512;51.486;6.610;2023-03-09T22:52:18;9.47;;;4.60;;
3004;SDS011;1512;51.486;6.610;2023-03-09T23:00:54;12.10;;;4.67;;
3004;SDS011;1512;51.486;6.610;2023-03-09T23:05:03;15.67;;;4.27;;
3004;SDS011;1512;51.486;6.610;2023-03-09T23:09:13;16.33;;;5.67;;
3004;SDS011;1512;51.486;6.610;2023-03-09T23:13:22;14.20;;;4.60;;
3004;SDS011;1512;51.486;6.610;2023-03-09T23:22:00;13.90;;;4.67;;
3004;SDS011;1512;51.486;6.610;2023-03-09T23:26:09;12.97;;;5.33;;
3004;SDS011;1512;51.486;6.610;2023-03-09T23:30:17;7.80;;;4.23;;
3004;SDS011;1512;51.486;6.610;2023-03-09T23:34:26;13.07;;;4.37;;
3004;SDS011;1512;51.486;6.610;2023-03-09T23:38:35;4.50;;;3.93;;
3004;SDS011;1512;51.486;6.610;2023-03-09T23:42:44;8.73;;;4.73;;
3004;SDS011;1512;51.486;6.610;2023-03-09T23:46:53;5.50;;;3.87;;
3004;SDS011;1512;51.486;6.610;2023-03-09T23:51:13;6.23;;;3.60;;
3004;SDS011;1512;51.486;6.610;2023-03-09T23:55:16;4.47;;;3.00;;
3004;SDS011;1512;51.486;6.610;2023-03-09T23:59:24;4.40;;;2.57;;
